Time;durP1;ratioP1;P1;durP2;ratioP2;P2;SDS_P1;SDS_P2;PMS_P1;PMS_P2;Temp;Humidity;BMP_temperature;BMP_pressure;BME280_temperature;BME280_humidity;BME280_pressure;Samples;Min_cycle;Max_cycle;Signal;HPM_P1;HPM_P2
2024/03/04 00:01:57;;;;;;;170.80;65.97;;;7.60;99.90;;;;;;5064774;28;20036;-74
2024/03/04 00:04:23;;;;;;;173.68;66.13;;;7.60;99.90;;;;;;5063657;28;20036;-74
2024/03/04 00:06:48;;;;;;;188.90;69.75;;;7.60;99.90;;;;;;5063314;28;20027;-74
2024/03/04 00:09:15;;;;;;;176.82;65.82;;;7.60;99.90;;;;;;5027433;28;1071758;-74
2024/03/04 00:11:41;;;;;;;173.27;65.30;;;7.50;99.90;;;;;;5066286;28;20108;-73
2024/03/04 00:14:07;;;;;;;173.90;65.75;;;7.60;99.90;;;;;;5065679;28;20033;-74
2024/03/04 00:16:33;;;;;;;175.55;64.80;;;7.60;99.90;;;;;;5064764;28;20025;-74
2024/03/04 00:18:58;;;;;;;171.73;66.85;;;7.50;99.90;;;;;;5064856;28;20028;-73
2024/03/04 00:21:27;;;;;;;178.48;66.00;;;7.50;99.90;;;;;;5065748;28;20031;-73
2024/03/04 00:23:52;;;;;;;163.82;64.88;;;7.60;99.90;;;;;;5065631;28;20032;-74
2024/03/04 00:26:18;;;;;;;178.55;64.95;;;7.60;99.90;;;;;;5066191;28;20029;-74
2024/03/04 00:28:44;;;;;;;170.75;64.90;;;7.50;99.90;;;;;;5063863;28;20032;-72
2024/03/04 00:31:12;;;;;;;173.75;65.75;;;7.60;99.90;;;;;;5064309;28;20055;-73
2024/03/04 00:33:38;;;;;;;174.90;66.75;;;7.50;99.90;;;;;;5065759;28;20505;-72
2024/03/04 00:36:05;;;;;;;170.80;65.25;;;7.50;99.90;;;;;;5064801;28;20051;-73
2024/03/04 00:38:31;;;;;;;160.55;63.22;;;7.50;99.90;;;;;;5065638;28;20017;-73
2024/03/04 00:40:57;;;;;;;162.02;63.03;;;7.50;99.90;;;;;;5064410;28;20025;-73
2024/03/04 00:43:23;;;;;;;165.55;64.45;;;7.50;99.90;;;;;;5065096;28;20381;-73
2024/03/04 00:45:48;;;;;;;171.25;65.13;;;7.40;99.90;;;;;;5065863;28;20025;-72
2024/03/04 00:48:14;;;;;;;165.43;62.22;;;7.40;99.90;;;;;;5065625;28;20021;-72
2024/03/04 00:50:39;;;;;;;167.60;64.38;;;7.40;99.90;;;;;;5065231;28;20088;-73
2024/03/04 00:53:05;;;;;;;165.93;65.65;;;7.30;99.90;;;;;;5064339;28;20021;-74
2024/03/04 00:55:31;;;;;;;175.30;66.70;;;7.30;99.90;;;;;;5065348;28;20036;-73
2024/03/04 00:57:57;;;;;;;163.82;63.60;;;7.30;99.90;;;;;;5064461;28;20021;-74
2024/03/04 01:00:23;;;;;;;165.10;65.20;;;7.30;99.90;;;;;;5065321;28;20021;-74
2024/03/04 01:02:49;;;;;;;165.15;64.47;;;7.30;99.90;;;;;;5063570;28;20029;-73
2024/03/04 01:05:15;;;;;;;166.85;63.47;;;7.20;99.90;;;;;;5065042;28;20040;-73
2024/03/04 01:07:40;;;;;;;169.70;63.88;;;7.20;99.90;;;;;;5065067;28;20009;-74
2024/03/04 01:10:06;;;;;;;160.73;62.10;;;7.20;99.90;;;;;;5064766;28;20094;-72
2024/03/04 01:12:32;;;;;;;165.27;63.80;;;7.20;99.90;;;;;;5064372;28;20028;-73
2024/03/04 01:14:58;;;;;;;158.02;61.83;;;7.20;99.90;;;;;;5065124;28;20027;-72
2024/03/04 01:17:24;;;;;;;165.45;63.08;;;7.20;99.90;;;;;;5063134;28;20033;-72
2024/03/04 01:19:51;;;;;;;160.73;62.13;;;7.20;99.90;;;;;;5064581;28;20021;-73
2024/03/04 01:22:17;;;;;;;163.15;65.47;;;7.20;99.90;;;;;;5064865;28;20028;-72
2024/03/04 01:24:44;;;;;;;167.88;64.63;;;7.30;99.90;;;;;;5063243;28;20037;-74
2024/03/04 01:27:13;;;;;;;164.23;63.38;;;7.30;99.90;;;;;;5063285;28;20051;-73
2024/03/04 01:29:41;;;;;;;157.15;62.70;;;7.30;99.90;;;;;;5064325;28;20096;-73
2024/03/04 01:32:09;;;;;;;161.65;64.18;;;7.30;99.90;;;;;;5064068;28;20017;-74
2024/03/04 01:34:38;;;;;;;163.10;62.97;;;7.30;99.90;;;;;;5064509;28;20028;-72
2024/03/04 01:37:08;;;;;;;159.65;63.15;;;7.30;99.90;;;;;;5064384;28;20663;-72
2024/03/04 01:39:34;;;;;;;167.73;64.35;;;7.30;99.90;;;;;;5062838;28;20045;-73
2024/03/04 01:42:00;;;;;;;167.40;62.80;;;7.30;99.90;;;;;;5063944;28;20117;-76
2024/03/04 01:44:35;;;;;;;152.55;60.22;;;7.30;99.90;;;;;;5063074;28;20055;-74
2024/03/04 01:47:03;;;;;;;160.60;63.28;;;7.30;99.90;;;;;;5061704;28;20065;-75
2024/03/04 01:49:33;;;;;;;150.63;61.85;;;7.40;99.90;;;;;;5060378;28;20087;-76
2024/03/04 01:52:00;;;;;;;155.35;63.17;;;7.40;99.90;;;;;;5063720;28;20115;-75
2024/03/04 01:54:25;;;;;;;160.50;62.65;;;7.30;99.90;;;;;;5062035;28;20092;-73
2024/03/04 01:56:51;;;;;;;158.63;62.25;;;7.40;99.90;;;;;;5063805;28;20029;-74
2024/03/04 01:59:18;;;;;;;160.18;62.85;;;7.30;99.90;;;;;;5063835;28;20029;-75
2024/03/04 02:01:45;;;;;;;150.15;59.83;;;7.30;99.90;;;;;;5062937;28;20090;-74
2024/03/04 02:04:11;;;;;;;159.15;61.22;;;7.30;99.90;;;;;;5063114;28;20037;-74
2024/03/04 02:06:37;;;;;;;150.43;58.67;;;7.30;99.90;;;;;;5061825;28;20084;-73
2024/03/04 02:09:03;;;;;;;157.77;60.28;;;7.20;99.90;;;;;;5061798;28;20081;-72
2024/03/04 02:11:29;;;;;;;143.90;58.40;;;7.20;99.90;;;;;;5062378;28;20476;-72
2024/03/04 02:13:55;;;;;;;163.75;58.75;;;7.20;99.90;;;;;;5061732;28;20398;-74
2024/03/04 02:16:21;;;;;;;148.80;57.95;;;7.10;99.90;;;;;;5063036;28;20085;-73
2024/03/04 02:18:46;;;;;;;164.60;56.83;;;7.10;99.90;;;;;;5062003;28;20037;-73
2024/03/04 02:21:14;;;;;;;174.52;57.13;;;7.10;99.90;;;;;;5062974;28;20009;-72
2024/03/04 02:23:40;;;;;;;183.27;57.35;;;7.00;99.90;;;;;;5058845;28;20088;-72
2024/03/04 02:26:06;;;;;;;170.45;56.97;;;6.90;99.90;;;;;;5061830;28;20052;-74
2024/03/04 02:28:32;;;;;;;152.15;56.22;;;6.80;99.90;;;;;;5060773;28;20024;-76
2024/03/04 02:30:59;;;;;;;148.23;56.65;;;6.90;99.90;;;;;;5061548;28;20032;-73
2024/03/04 02:33:26;;;;;;;194.15;58.92;;;6.90;99.90;;;;;;5063033;28;20508;-72
2024/03/04 02:35:53;;;;;;;151.60;55.42;;;6.90;99.90;;;;;;5060484;28;20028;-75
2024/03/04 02:38:18;;;;;;;151.73;55.60;;;6.80;99.90;;;;;;5061583;28;20037;-75
2024/03/04 02:40:45;;;;;;;164.68;56.13;;;6.80;99.90;;;;;;5062321;28;20040;-74
2024/03/04 02:43:11;;;;;;;192.45;58.25;;;6.90;99.90;;;;;;5061033;28;20017;-72
2024/03/04 02:45:38;;;;;;;138.93;55.38;;;6.90;99.90;;;;;;5060553;28;20058;-72
2024/03/04 02:48:05;;;;;;;148.68;54.53;;;6.90;99.90;;;;;;5062297;28;20033;-73
2024/03/04 02:50:33;;;;;;;140.80;54.45;;;6.90;99.90;;;;;;5060916;28;20089;-72
2024/03/04 02:52:58;;;;;;;235.40;57.28;;;6.90;99.90;;;;;;5062246;28;20494;-73
2024/03/04 02:55:24;;;;;;;190.63;57.10;;;6.90;99.90;;;;;;5062524;28;20025;-72
2024/03/04 02:57:49;;;;;;;188.88;56.13;;;6.90;99.90;;;;;;5062295;28;20025;-73
2024/03/04 03:00:16;;;;;;;145.10;54.78;;;6.90;99.90;;;;;;5061292;28;20025;-74
2024/03/04 03:02:41;;;;;;;206.18;54.53;;;6.90;99.90;;;;;;5060901;28;20021;-71
2024/03/04 03:05:07;;;;;;;246.20;53.33;;;6.90;99.90;;;;;;5061859;28;20045;-75
2024/03/04 03:07:33;;;;;;;230.93;56.85;;;6.90;99.90;;;;;;5061189;28;20025;-73
2024/03/04 03:09:58;;;;;;;238.73;55.30;;;6.90;99.90;;;;;;5061814;28;20033;-74
2024/03/04 03:12:24;;;;;;;167.60;53.03;;;6.90;99.90;;;;;;5060727;28;20085;-72
2024/03/04 03:14:50;;;;;;;239.70;56.22;;;6.90;99.90;;;;;;5062425;28;20013;-73
2024/03/04 03:17:19;;;;;;;328.25;58.35;;;6.80;99.90;;;;;;5061060;28;20047;-72
2024/03/04 03:19:44;;;;;;;201.77;55.80;;;6.90;99.90;;;;;;5061936;28;20028;-74
2024/03/04 03:22:10;;;;;;;251.25;59.55;;;6.90;99.90;;;;;;5062095;28;20029;-70
2024/03/04 03:24:35;;;;;;;328.33;60.42;;;6.90;99.90;;;;;;5061589;28;20068;-74
2024/03/04 03:27:01;;;;;;;311.17;61.17;;;6.90;99.90;;;;;;5061775;28;20045;-73
2024/03/04 03:29:27;;;;;;;228.57;55.92;;;6.90;99.90;;;;;;5060762;28;20017;-72
2024/03/04 03:31:52;;;;;;;299.42;58.40;;;6.90;99.90;;;;;;5060526;28;20066;-73
2024/03/04 03:34:18;;;;;;;343.05;58.45;;;7.00;99.90;;;;;;5060753;28;20123;-76
2024/03/04 03:36:44;;;;;;;245.57;57.17;;;7.00;99.90;;;;;;5061377;28;20374;-73
2024/03/04 03:39:10;;;;;;;345.38;65.18;;;7.00;99.90;;;;;;5061255;28;20045;-73
2024/03/04 03:41:39;;;;;;;256.77;60.63;;;7.00;99.90;;;;;;5060444;28;20497;-72
2024/03/04 03:44:05;;;;;;;187.77;57.72;;;6.90;99.90;;;;;;5060135;28;20058;-74
2024/03/04 03:46:30;;;;;;;317.38;61.13;;;6.90;99.90;;;;;;5061760;28;20029;-75
2024/03/04 03:48:56;;;;;;;174.48;59.65;;;7.00;99.90;;;;;;5060600;28;20043;-73
2024/03/04 03:51:22;;;;;;;230.82;60.90;;;7.00;99.90;;;;;;5060740;28;20071;-74
2024/03/04 03:53:48;;;;;;;261.42;64.57;;;7.00;99.90;;;;;;5059827;28;20032;-74
2024/03/04 03:56:13;;;;;;;196.52;59.58;;;7.10;99.90;;;;;;5062040;28;20052;-72
2024/03/04 03:58:39;;;;;;;256.48;64.32;;;7.10;99.90;;;;;;5060520;28;20021;-74
2024/03/04 04:01:05;;;;;;;252.25;62.83;;;7.10;99.90;;;;;;5062045;28;20108;-72
2024/03/04 04:03:33;;;;;;;183.63;61.50;;;7.10;99.90;;;;;;5060724;28;20217;-73
2024/03/04 04:05:59;;;;;;;205.93;63.65;;;7.20;99.90;;;;;;5060607;28;20028;-74
2024/03/04 04:08:24;;;;;;;297.38;68.07;;;7.20;99.90;;;;;;5062206;28;20100;-73
2024/03/04 04:10:50;;;;;;;209.65;64.97;;;7.20;99.90;;;;;;5062166;28;20056;-72
2024/03/04 04:13:16;;;;;;;337.35;72.85;;;7.20;99.90;;;;;;5060496;28;20036;-72
2024/03/04 04:15:41;;;;;;;236.35;65.20;;;7.20;99.90;;;;;;5062029;28;20048;-72
2024/03/04 04:18:07;;;;;;;253.50;65.97;;;7.30;99.90;;;;;;5062223;28;20115;-72
2024/03/04 04:20:33;;;;;;;346.13;73.07;;;7.30;99.90;;;;;;5060280;28;20093;-73
2024/03/04 04:22:58;;;;;;;321.15;67.72;;;7.30;99.90;;;;;;5061952;28;20037;-72
2024/03/04 04:25:24;;;;;;;283.75;68.82;;;7.30;99.90;;;;;;5060704;28;20441;-73
2024/03/04 04:27:50;;;;;;;271.65;69.22;;;7.30;99.90;;;;;;5053734;28;20025;-73
2024/03/04 04:30:15;;;;;;;324.83;71.25;;;7.30;99.90;;;;;;5060218;28;20552;-71
2024/03/04 04:32:41;;;;;;;350.50;72.72;;;7.30;99.90;;;;;;5061674;28;20040;-71
2024/03/04 04:35:07;;;;;;;227.93;67.20;;;7.30;99.90;;;;;;5060902;28;20029;-71
2024/03/04 04:37:33;;;;;;;310.92;71.82;;;7.30;99.90;;;;;;5060277;28;20021;-72
2024/03/04 04:39:58;;;;;;;229.98;66.40;;;7.40;99.90;;;;;;5061765;28;20021;-72
2024/03/04 04:42:24;;;;;;;204.43;66.63;;;7.40;99.90;;;;;;5058964;28;20021;-72
2024/03/04 04:44:50;;;;;;;254.30;69.75;;;7.40;99.90;;;;;;5060918;28;20092;-72
2024/03/04 04:47:16;;;;;;;229.93;69.45;;;7.40;99.90;;;;;;5064190;28;20048;-72
2024/03/04 04:49:42;;;;;;;193.73;69.15;;;7.40;99.90;;;;;;5065257;28;20032;-73
2024/03/04 04:52:08;;;;;;;293.48;71.43;;;7.40;99.90;;;;;;5060867;28;20060;-72
2024/03/04 04:54:34;;;;;;;214.45;70.20;;;7.40;99.90;;;;;;5063585;28;20033;-71
2024/03/04 04:56:59;;;;;;;243.02;70.85;;;7.40;99.90;;;;;;5064693;28;20060;-72
2024/03/04 04:59:25;;;;;;;281.70;77.13;;;7.50;99.90;;;;;;5061828;28;20028;-73
2024/03/04 05:01:51;;;;;;;263.05;72.38;;;7.40;99.90;;;;;;5064743;28;20158;-71
2024/03/04 05:04:18;;;;;;;238.65;73.30;;;7.40;99.90;;;;;;5063585;28;20052;-71
2024/03/04 05:06:44;;;;;;;250.05;71.95;;;7.40;99.90;;;;;;5063746;28;20048;-72
2024/03/04 05:09:10;;;;;;;272.77;74.55;;;7.40;99.90;;;;;;5064412;28;20045;-71
2024/03/04 05:11:36;;;;;;;250.52;75.68;;;7.40;99.90;;;;;;5064395;28;20025;-71
2024/03/04 05:14:02;;;;;;;201.35;71.57;;;7.50;99.90;;;;;;5064960;28;20021;-73
2024/03/04 05:16:29;;;;;;;254.75;74.88;;;7.50;99.90;;;;;;5061984;28;20029;-73
2024/03/04 05:18:56;;;;;;;314.40;79.95;;;7.50;99.90;;;;;;5064042;28;20405;-72
2024/03/04 05:21:22;;;;;;;224.70;73.97;;;7.50;99.90;;;;;;5064276;28;20052;-71
2024/03/04 05:23:48;;;;;;;256.05;78.65;;;7.50;99.90;;;;;;5063387;28;20128;-72
2024/03/04 05:26:13;;;;;;;303.35;79.00;;;7.50;99.90;;;;;;5064117;28;20037;-72
2024/03/04 05:28:39;;;;;;;234.63;73.93;;;7.50;99.90;;;;;;5063139;28;20500;-72
2024/03/04 05:31:04;;;;;;;248.63;75.78;;;7.50;99.90;;;;;;5063616;28;20033;-71
2024/03/04 05:33:30;;;;;;;219.73;73.95;;;7.50;99.90;;;;;;5059883;28;20168;-72
2024/03/04 05:35:56;;;;;;;267.33;78.43;;;7.50;99.90;;;;;;5062276;28;20483;-73
2024/03/04 05:38:22;;;;;;;264.50;77.93;;;7.50;99.90;;;;;;5061850;28;20052;-72
2024/03/04 05:40:47;;;;;;;233.07;74.93;;;7.50;99.90;;;;;;5059919;28;20079;-72
2024/03/04 05:43:13;;;;;;;260.85;77.32;;;7.50;99.90;;;;;;5062795;28;20022;-73
2024/03/04 05:45:40;;;;;;;213.40;74.05;;;7.50;99.90;;;;;;5061328;28;20565;-72
2024/03/04 05:48:06;;;;;;;272.08;77.30;;;7.50;99.90;;;;;;5061543;28;20025;-73
2024/03/04 05:50:32;;;;;;;224.52;76.80;;;7.50;99.90;;;;;;5062852;28;20393;-72
2024/03/04 05:52:57;;;;;;;238.20;79.50;;;7.50;99.90;;;;;;5061747;28;20040;-72
2024/03/04 05:55:23;;;;;;;225.90;75.35;;;7.50;99.90;;;;;;5061882;28;20040;-72
2024/03/04 05:57:49;;;;;;;230.43;75.13;;;7.50;99.90;;;;;;5062839;28;20088;-73
2024/03/04 06:00:15;;;;;;;296.00;77.82;;;7.60;99.90;;;;;;5062066;28;20056;-72
2024/03/04 06:02:44;;;;;;;257.48;79.05;;;7.60;99.90;;;;;;5060598;28;20021;-71
2024/03/04 06:05:13;;;;;;;237.98;79.63;;;7.60;99.90;;;;;;5062443;28;20096;-71
2024/03/04 06:07:43;;;;;;;268.15;77.00;;;7.60;99.90;;;;;;5062390;28;20029;-72
2024/03/04 06:10:09;;;;;;;241.55;77.55;;;7.60;99.90;;;;;;5061523;28;20521;-74
2024/03/04 06:12:35;;;;;;;220.80;77.38;;;7.60;99.90;;;;;;5063174;28;20028;-72
2024/03/04 06:15:00;;;;;;;238.45;78.47;;;7.60;99.90;;;;;;5056488;28;20034;-73
2024/03/04 06:17:28;;;;;;;210.75;74.22;;;7.60;99.90;;;;;;5063411;28;20032;-71
2024/03/04 06:19:54;;;;;;;229.95;76.28;;;7.60;99.90;;;;;;5061057;28;20025;-73
2024/03/04 06:22:20;;;;;;;265.98;79.97;;;7.70;99.90;;;;;;5061902;28;20705;-72
2024/03/04 06:24:45;;;;;;;263.80;78.50;;;7.70;99.90;;;;;;5062043;28;20070;-70
2024/03/04 06:27:11;;;;;;;217.73;76.68;;;7.70;99.90;;;;;;5061911;28;21125;-71
2024/03/04 06:29:36;;;;;;;253.07;80.07;;;7.70;99.90;;;;;;5059991;28;20063;-74
2024/03/04 06:32:03;;;;;;;224.25;78.55;;;7.70;99.90;;;;;;5055799;28;20071;-73
2024/03/04 06:34:32;;;;;;;230.38;77.47;;;7.70;99.90;;;;;;5058862;28;20059;-73
2024/03/04 06:36:57;;;;;;;232.70;78.05;;;7.70;99.90;;;;;;5056978;28;20041;-73
2024/03/04 06:39:24;;;;;;;243.32;82.35;;;7.70;99.90;;;;;;5054289;28;20049;-73
2024/03/04 06:41:50;;;;;;;230.25;78.88;;;7.70;99.90;;;;;;5060549;28;20033;-74
2024/03/04 06:44:16;;;;;;;235.82;80.35;;;7.70;99.90;;;;;;5061736;28;20033;-73
2024/03/04 06:46:43;;;;;;;216.55;76.75;;;7.70;99.90;;;;;;5059707;28;20039;-72
2024/03/04 06:49:08;;;;;;;208.35;75.80;;;7.70;99.90;;;;;;5060567;28;20037;-72
2024/03/04 06:51:37;;;;;;;243.07;79.75;;;7.80;99.90;;;;;;5060980;28;20052;-73
2024/03/04 06:54:04;;;;;;;247.55;81.38;;;7.80;99.90;;;;;;5058588;28;20021;-72
2024/03/04 06:56:30;;;;;;;225.98;78.80;;;7.80;99.90;;;;;;5061839;28;20589;-72
2024/03/04 06:59:00;;;;;;;237.77;80.82;;;7.80;99.90;;;;;;5061271;28;20148;-73
2024/03/04 07:01:25;;;;;;;216.60;79.63;;;7.90;99.90;;;;;;5059933;28;20040;-74
2024/03/04 07:03:51;;;;;;;231.02;77.82;;;7.90;99.90;;;;;;5059700;28;20037;-73
2024/03/04 07:06:17;;;;;;;227.38;79.82;;;8.00;99.90;;;;;;5059858;28;20025;-74
2024/03/04 07:08:43;;;;;;;208.18;76.95;;;8.00;99.90;;;;;;5051872;28;20032;-72
2024/03/04 07:11:10;;;;;;;207.48;76.53;;;8.00;99.90;;;;;;5060025;28;20568;-73
2024/03/04 07:13:35;;;;;;;209.70;78.35;;;8.10;99.90;;;;;;5059154;28;20032;-73
2024/03/04 07:16:02;;;;;;;204.73;79.07;;;8.10;99.90;;;;;;5062413;28;20036;-70
2024/03/04 07:18:31;;;;;;;209.95;78.85;;;8.20;99.90;;;;;;5062601;28;20028;-74
2024/03/04 07:20:57;;;;;;;219.45;78.60;;;8.30;99.90;;;;;;5062029;28;20448;-71
2024/03/04 07:23:23;;;;;;;210.95;78.10;;;8.30;99.90;;;;;;5062504;28;20511;-72
2024/03/04 07:25:48;;;;;;;204.82;76.78;;;8.40;99.90;;;;;;5062208;28;20044;-74
2024/03/04 07:28:14;;;;;;;190.45;75.75;;;8.40;99.90;;;;;;5062199;28;20032;-71
2024/03/04 07:30:39;;;;;;;188.45;75.72;;;8.50;99.90;;;;;;5062453;28;20098;-72
2024/03/04 07:33:08;;;;;;;191.98;76.13;;;8.50;99.90;;;;;;5061140;28;20017;-73
2024/03/04 07:35:34;;;;;;;181.80;76.15;;;8.60;99.90;;;;;;5061640;28;20020;-72
2024/03/04 07:38:00;;;;;;;186.15;74.20;;;8.60;99.90;;;;;;5058474;28;20009;-73
2024/03/04 07:40:25;;;;;;;183.70;75.07;;;8.70;99.90;;;;;;5060192;28;20032;-70
2024/03/04 07:42:51;;;;;;;179.02;74.85;;;8.80;99.90;;;;;;5058121;28;20037;-73
2024/03/04 07:45:16;;;;;;;181.48;72.05;;;8.80;99.90;;;;;;5061195;28;20100;-72
2024/03/04 07:47:42;;;;;;;172.80;71.22;;;8.80;99.90;;;;;;5057131;28;20044;-72
2024/03/04 07:50:07;;;;;;;176.63;73.18;;;8.90;99.90;;;;;;5057399;28;20036;-72
2024/03/04 07:52:33;;;;;;;170.25;72.50;;;8.90;99.90;;;;;;5057405;28;20028;-72
2024/03/04 07:54:59;;;;;;;170.27;72.13;;;9.00;99.90;;;;;;5058596;28;20075;-73
2024/03/04 07:57:24;;;;;;;172.90;72.47;;;9.10;99.90;;;;;;5059988;28;20033;-71
2024/03/04 07:59:50;;;;;;;178.43;74.53;;;9.10;99.90;;;;;;5059219;28;20033;-74
2024/03/04 08:02:16;;;;;;;165.95;72.45;;;9.20;99.90;;;;;;5056177;28;20390;-72
2024/03/04 08:04:44;;;;;;;161.90;72.03;;;9.20;99.90;;;;;;5056015;28;20064;-72
2024/03/04 08:07:10;;;;;;;168.90;71.70;;;9.20;99.90;;;;;;5058013;28;20049;-72
2024/03/04 08:09:36;;;;;;;163.27;71.57;;;9.20;99.90;;;;;;5056375;28;20049;-71
2024/03/04 08:12:01;;;;;;;158.13;71.63;;;9.30;99.90;;;;;;5060383;28;20501;-72
2024/03/04 08:14:27;;;;;;;159.88;70.90;;;9.30;99.90;;;;;;5061200;28;20029;-72
2024/03/04 08:16:52;;;;;;;167.55;72.10;;;9.30;99.90;;;;;;5060714;28;20167;-72
2024/03/04 08:19:18;;;;;;;157.38;70.85;;;9.30;99.90;;;;;;5062075;28;20041;-73
2024/03/04 08:21:44;;;;;;;161.88;71.47;;;9.40;99.90;;;;;;5062549;28;20013;-72
2024/03/04 08:24:10;;;;;;;152.98;69.00;;;9.50;99.90;;;;;;5063476;28;20043;-74
2024/03/04 08:26:35;;;;;;;153.35;69.10;;;9.50;99.90;;;;;;5064719;28;20525;-72
2024/03/04 08:29:01;;;;;;;152.85;68.68;;;9.60;99.90;;;;;;5064971;28;20417;-72
2024/03/04 08:31:28;;;;;;;154.10;67.22;;;9.60;99.90;;;;;;5065022;28;20017;-72
2024/03/04 08:33:54;;;;;;;149.50;70.75;;;9.60;99.90;;;;;;5065853;28;20024;-72
2024/03/04 08:36:20;;;;;;;152.80;69.38;;;9.70;99.90;;;;;;5064837;28;20505;-72
2024/03/04 08:38:47;;;;;;;153.55;67.07;;;9.70;99.90;;;;;;5064088;28;20470;-71
2024/03/04 08:41:13;;;;;;;141.60;66.03;;;9.70;99.90;;;;;;5061470;28;20048;-72
2024/03/04 08:43:40;;;;;;;152.40;69.00;;;9.70;99.90;;;;;;5063894;28;20029;-71
2024/03/04 08:46:05;;;;;;;141.60;65.32;;;9.80;99.90;;;;;;5062157;28;20031;-73
2024/03/04 08:48:31;;;;;;;145.05;67.00;;;9.80;99.90;;;;;;5064835;28;20387;-74
2024/03/04 08:50:56;;;;;;;158.25;68.90;;;9.80;99.90;;;;;;5062646;28;20450;-73
2024/03/04 08:53:22;;;;;;;148.57;68.47;;;9.80;99.90;;;;;;5062823;28;20022;-73
2024/03/04 08:55:48;;;;;;;142.02;68.18;;;9.80;99.90;;;;;;5065437;28;20021;-73
2024/03/04 08:58:14;;;;;;;147.77;68.93;;;9.80;99.90;;;;;;5064449;28;20021;-72
2024/03/04 09:00:39;;;;;;;142.50;67.70;;;9.80;99.90;;;;;;5062148;28;20025;-74
2024/03/04 09:03:05;;;;;;;146.80;66.78;;;9.80;99.90;;;;;;5064126;28;20394;-73
2024/03/04 09:05:31;;;;;;;138.48;64.40;;;9.90;99.90;;;;;;5064876;28;20025;-72
2024/03/04 09:08:02;;;;;;;147.18;65.82;;;9.90;99.90;;;;;;5064903;28;20088;-74
2024/03/04 09:10:29;;;;;;;150.13;68.50;;;10.00;99.90;;;;;;5061948;28;20408;-73
2024/03/04 09:12:55;;;;;;;138.52;66.07;;;10.10;99.90;;;;;;5063127;28;20025;-73
2024/03/04 09:15:22;;;;;;;138.70;66.47;;;10.10;99.90;;;;;;5063989;28;20404;-72
2024/03/04 09:17:47;;;;;;;134.45;62.97;;;10.30;99.90;;;;;;5060345;28;20030;-73
2024/03/04 09:20:13;;;;;;;133.35;65.40;;;10.40;99.90;;;;;;5060854;28;20028;-72
2024/03/04 09:22:40;;;;;;;126.55;62.50;;;10.60;99.90;;;;;;5060557;28;20036;-73
2024/03/04 09:25:06;;;;;;;127.60;62.88;;;10.80;99.90;;;;;;5059369;28;20037;-73
2024/03/04 09:27:32;;;;;;;125.57;61.67;;;10.90;99.90;;;;;;5059105;28;20063;-73
2024/03/04 09:30:01;;;;;;;122.95;62.17;;;11.00;99.90;;;;;;5059268;28;20050;-72
2024/03/04 09:32:26;;;;;;;125.68;59.22;;;11.20;99.90;;;;;;5062110;28;20040;-73
2024/03/04 09:34:52;;;;;;;117.03;62.15;;;11.30;99.90;;;;;;5061043;28;20037;-72
2024/03/04 09:37:17;;;;;;;121.40;60.63;;;11.50;99.90;;;;;;5049111;28;20051;-74
2024/03/04 09:39:43;;;;;;;113.20;60.15;;;11.70;99.90;;;;;;5055024;28;20056;-73
2024/03/04 09:42:09;;;;;;;113.05;59.83;;;12.10;99.90;;;;;;5061916;28;20535;-73
2024/03/04 09:44:35;;;;;;;107.45;56.63;;;12.40;99.90;;;;;;5061093;28;21559;-72
2024/03/04 09:47:01;;;;;;;104.15;56.38;;;12.60;99.90;;;;;;5060529;28;20029;-72
2024/03/04 09:49:30;;;;;;;103.25;55.50;;;12.80;99.90;;;;;;5062578;28;20084;-73
2024/03/04 09:52:01;;;;;;;98.00;54.40;;;12.80;99.90;;;;;;5061761;28;20021;-73
2024/03/04 09:54:30;;;;;;;103.20;55.28;;;12.80;99.90;;;;;;5063130;28;20035;-73
2024/03/04 09:56:56;;;;;;;101.10;55.35;;;13.00;99.90;;;;;;5061784;28;20025;-73
2024/03/04 09:59:24;;;;;;;95.65;54.28;;;13.20;99.90;;;;;;5060758;28;21214;-73
2024/03/04 10:01:50;;;;;;;94.43;53.95;;;13.40;99.90;;;;;;5061295;28;20028;-74
2024/03/04 10:04:18;;;;;;;92.97;52.95;;;13.60;99.90;;;;;;5061600;28;20037;-73
2024/03/04 10:06:44;;;;;;;92.97;53.85;;;13.60;99.90;;;;;;5061033;28;20052;-73
2024/03/04 10:09:12;;;;;;;94.45;51.78;;;13.80;99.90;;;;;;5060300;28;20080;-73
2024/03/04 10:11:39;;;;;;;91.63;51.78;;;13.90;99.90;;;;;;5059029;28;20084;-73
2024/03/04 10:14:05;;;;;;;91.60;50.22;;;14.10;99.90;;;;;;5063062;28;20021;-73
2024/03/04 10:16:31;;;;;;;95.25;52.60;;;14.20;99.90;;;;;;5061165;28;20029;-73
2024/03/04 10:19:03;;;;;;;86.60;49.67;;;14.40;99.90;;;;;;5063350;28;20017;-74
2024/03/04 10:21:30;;;;;;;84.43;49.78;;;14.70;99.90;;;;;;5063483;28;20067;-74
2024/03/04 10:24:15;;;;;;;80.57;48.60;;;15.00;99.90;;;;;;5063246;28;20044;-73
2024/03/04 10:26:46;;;;;;;89.18;51.33;;;15.20;99.90;;;;;;5063279;28;20148;-73
2024/03/04 10:29:15;;;;;;;83.43;50.03;;;15.40;99.90;;;;;;5063284;28;20086;-73
2024/03/04 10:31:51;;;;;;;80.82;47.97;;;15.60;99.90;;;;;;5061833;28;20148;-72
2024/03/04 10:34:17;;;;;;;85.45;51.55;;;15.70;99.90;;;;;;5061101;28;20072;-74
2024/03/04 10:36:46;;;;;;;81.88;49.35;;;15.90;99.90;;;;;;5062073;28;20474;-74
2024/03/04 10:39:18;;;;;;;85.60;50.35;;;16.00;99.90;;;;;;5062439;28;20047;-73
2024/03/04 10:41:47;;;;;;;85.38;51.58;;;16.10;99.90;;;;;;5063212;28;20029;-74
2024/03/04 10:44:23;;;;;;;85.07;50.08;;;16.20;99.90;;;;;;5061750;28;20405;-73
2024/03/04 10:46:53;;;;;;;83.07;51.17;;;16.20;99.90;;;;;;5062748;28;20025;-74
2024/03/04 10:49:20;;;;;;;76.85;48.53;;;16.20;99.90;;;;;;5060852;28;20025;-72
2024/03/04 10:51:45;;;;;;;75.65;47.55;;;16.20;99.90;;;;;;5056977;28;20036;-74
2024/03/04 10:54:11;;;;;;;80.25;49.45;;;16.20;99.90;;;;;;5062062;28;20025;-74
2024/03/04 10:56:44;;;;;;;83.78;50.35;;;16.10;99.90;;;;;;5061036;28;20070;-73
2024/03/04 10:59:12;;;;;;;82.65;49.17;;;16.10;99.90;;;;;;5056618;28;20112;-73
2024/03/04 11:01:38;;;;;;;84.85;46.97;;;16.00;99.90;;;;;;5059251;28;20037;-73
2024/03/04 11:04:05;;;;;;;80.53;48.78;;;16.20;99.90;;;;;;5058212;28;20142;-72
2024/03/04 11:06:33;;;;;;;79.57;49.10;;;16.20;99.90;;;;;;5058925;28;20036;-73
2024/03/04 11:09:05;;;;;;;78.40;49.03;;;16.10;99.90;;;;;;5058413;28;20037;-73
2024/03/04 11:11:35;;;;;;;80.05;48.65;;;16.40;99.90;;;;;;5055250;28;20108;-73
2024/03/04 11:14:13;;;;;;;76.82;47.28;;;16.70;99.90;;;;;;5059562;28;20024;-73
2024/03/04 11:16:44;;;;;;;77.00;47.95;;;17.00;99.90;;;;;;5060126;28;20432;-72
2024/03/04 11:19:49;;;;;;;73.03;47.60;;;17.20;99.90;;;;;;5061576;28;20033;-74
2024/03/04 11:22:17;;;;;;;70.25;44.65;;;17.50;99.90;;;;;;5059361;28;20029;-73
2024/03/04 11:24:46;;;;;;;72.55;46.10;;;17.70;99.90;;;;;;5060374;28;20058;-72
2024/03/04 11:27:15;;;;;;;69.82;44.97;;;17.70;99.90;;;;;;5056878;28;20021;-72
2024/03/04 11:29:41;;;;;;;67.82;43.75;;;17.40;99.90;;;;;;5059936;28;20029;-73
2024/03/04 11:32:10;;;;;;;72.28;43.80;;;17.30;99.90;;;;;;5059059;28;20048;-73
2024/03/04 11:34:58;;;;;;;76.10;47.80;;;17.10;99.90;;;;;;5058684;28;20025;-74
2024/03/04 11:37:30;;;;;;;72.90;45.38;;;17.00;99.90;;;;;;5060313;28;20032;-74
2024/03/04 11:39:57;;;;;;;67.10;42.83;;;16.80;99.90;;;;;;5061343;28;20025;-74
2024/03/04 11:42:33;;;;;;;65.45;40.58;;;16.90;99.90;;;;;;5058934;28;20557;-73
2024/03/04 11:45:00;;;;;;;70.30;42.60;;;16.80;99.90;;;;;;5059540;28;20047;-74
2024/03/04 11:47:30;;;;;;;70.95;45.13;;;16.90;99.90;;;;;;5060563;28;20025;-75
2024/03/04 11:49:57;;;;;;;69.50;44.55;;;16.90;99.90;;;;;;5057647;28;20033;-73
2024/03/04 11:52:24;;;;;;;70.10;42.50;;;16.80;99.90;;;;;;5058400;28;20032;-75
2024/03/04 11:54:50;;;;;;;69.90;42.67;;;16.50;99.90;;;;;;5054980;28;20025;-73
2024/03/04 11:57:17;;;;;;;66.35;43.17;;;16.40;99.90;;;;;;5058306;28;20025;-74
2024/03/04 12:00:09;;;;;;;69.90;45.67;;;16.40;99.90;;;;;;5060381;28;20434;-74
2024/03/04 12:02:38;;;;;;;72.20;41.90;;;16.40;99.90;;;;;;5059109;28;20049;-75
2024/03/04 12:05:05;;;;;;;71.90;43.00;;;16.40;99.90;;;;;;5058447;28;20033;-74
2024/03/04 12:07:32;;;;;;;75.30;44.83;;;16.40;99.90;;;;;;5057703;28;20017;-74
2024/03/04 12:09:59;;;;;;;67.47;43.10;;;16.30;99.90;;;;;;5058784;28;20072;-74
2024/03/04 12:12:25;;;;;;;65.68;40.90;;;16.20;99.90;;;;;;5062156;28;20024;-74
2024/03/04 12:14:51;;;;;;;70.40;42.22;;;16.00;99.90;;;;;;5059378;28;20033;-74
2024/03/04 12:17:17;;;;;;;68.20;42.15;;;15.60;99.90;;;;;;5059351;28;20104;-73
2024/03/04 12:19:56;;;;;;;81.22;45.35;;;15.40;99.90;;;;;;5059251;28;20085;-73
2024/03/04 12:22:26;;;;;;;75.03;43.33;;;15.10;99.90;;;;;;5058068;28;20024;-75
2024/03/04 12:25:22;;;;;;;72.70;43.78;;;14.90;99.90;;;;;;5056126;28;20079;-73